This is the latest recevied weather packets stored in our database for station/object VK6DUG. If no packets are shown the sender has not sent any weather packets the latest 10 day(s).
| Time | Temp. | Humidity | Pressure | Rain* | Wind** | Luminosity | Snow |
|---|---|---|---|---|---|---|---|
| 1777963823 | 21.11° C | 59% | 1028.1 hPa | 0 mm | - | 366 W/m² | - |
| 1777963220 | 21.11° C | 59% | 1028.2 hPa | 0 mm | - | 393 W/m² | - |
| 1777962618 | 21.11° C | 59% | 1028.1 hPa | 0 mm | - | 422 W/m² | - |
| 1777962035 | 21.11° C | 59% | 1028 hPa | 0 mm | - | 449 W/m² | - |
| 1777961432 | 21.11° C | 59% | 1028.1 hPa | 0 mm | - | 455 W/m² | - |
| 1777960829 | 21.11° C | 59% | 1028.1 hPa | 0 mm | - | 485 W/m² | - |
| 1777960227 | 21.11° C | 58% | 1028.1 hPa | 0 mm | - | 494 W/m² | - |
| 1777959624 | 21.11° C | 59% | 1028 hPa | 0 mm | - | 515 W/m² | - |
| 1777959022 | 21.11° C | 58% | 1028.1 hPa | 0 mm | - | 507 W/m² | - |
| 1777958419 | 21.67° C | 53% | 1028.2 hPa | 0 mm | - | 499 W/m² | - |
| 1777957816 | 21.11° C | 53% | 1028.5 hPa | 0 mm | - | 552 W/m² | - |
| 1777957234 | 21.11° C | 53% | 1028.5 hPa | 0 mm | - | 551 W/m² | - |
| 1777956632 | 21.11° C | 53% | 1028.8 hPa | 0 mm | - | 559 W/m² | - |
| 1777956029 | 21.11° C | 53% | 1028.9 hPa | 0 mm | - | 560 W/m² | - |
| 1777955427 | 21.67° C | 52% | 1029.2 hPa | 0 mm | - | 560 W/m² | - |
| 1777954823 | 21.11° C | 52% | 1029.2 hPa | 0 mm | - | 557 W/m² | - |
| 1777954221 | 21.11° C | 53% | 1029.4 hPa | 0 mm | - | 550 W/m² | - |
| 1777953619 | 21.11° C | 53% | 1029.5 hPa | 0 mm | - | 549 W/m² | - |
| 1777953015 | 20.56° C | 54% | 1029.7 hPa | 0 mm | - | 543 W/m² | - |
| 1777952445 | 21.11° C | 54% | 1029.8 hPa | 0 mm | - | 530 W/m² | - |
| 1777951830 | 20° C | 55% | 1029.8 hPa | 0 mm | - | 533 W/m² | - |
| 1777951227 | 19.44° C | 57% | 1030 hPa | 0 mm | - | 520 W/m² | - |
| 1777950625 | 19.44° C | 58% | 1029.9 hPa | 0 mm | - | 508 W/m² | - |
| 1777950022 | 19.44° C | 59% | 1030.1 hPa | 0 mm | - | 498 W/m² | - |
| 1777949421 | 20° C | 57% | 1030.2 hPa | 0 mm | - | 477 W/m² | - |
* Rain latest hour (hover to see other rain measurements)
** Current wind speed in m/s (hover to see current wind gust speed)